sensor_id;sensor_type;location;lat;lon;timestamp;P1;durP1;ratioP1;P2;durP2;ratioP2
33357;SDS011;19717;42.614;23.418;2022-09-24T00:02:03;11.02;;;6.75;;
33357;SDS011;19717;42.614;23.418;2022-09-24T00:04:30;13.63;;;7.45;;
33357;SDS011;19717;42.614;23.418;2022-09-24T00:06:56;13.13;;;7.10;;
33357;SDS011;19717;42.614;23.418;2022-09-24T00:09:22;11.88;;;6.72;;
33357;SDS011;19717;42.614;23.418;2022-09-24T00:11:49;9.48;;;6.53;;
33357;SDS011;19717;42.614;23.418;2022-09-24T00:14:16;8.98;;;5.82;;
33357;SDS011;19717;42.614;23.418;2022-09-24T00:16:43;10.10;;;6.35;;
33357;SDS011;19717;42.614;23.418;2022-09-24T00:19:10;12.02;;;6.53;;
33357;SDS011;19717;42.614;23.418;2022-09-24T00:21:37;8.25;;;5.97;;
33357;SDS011;19717;42.614;23.418;2022-09-24T00:24:04;12.55;;;6.47;;
33357;SDS011;19717;42.614;23.418;2022-09-24T00:26:30;8.98;;;6.35;;
33357;SDS011;19717;42.614;23.418;2022-09-24T00:29:22;8.65;;;6.32;;
33357;SDS011;19717;42.614;23.418;2022-09-24T00:31:49;8.77;;;5.93;;
33357;SDS011;19717;42.614;23.418;2022-09-24T00:34:16;9.23;;;6.05;;
33357;SDS011;19717;42.614;23.418;2022-09-24T00:36:42;9.10;;;6.18;;
33357;SDS011;19717;42.614;23.418;2022-09-24T00:39:12;9.75;;;6.30;;
33357;SDS011;19717;42.614;23.418;2022-09-24T00:41:38;10.55;;;6.80;;
33357;SDS011;19717;42.614;23.418;2022-09-24T00:46:57;11.70;;;6.93;;
33357;SDS011;19717;42.614;23.418;2022-09-24T00:49:23;11.32;;;7.43;;
33357;SDS011;19717;42.614;23.418;2022-09-24T00:51:51;14.93;;;7.53;;
33357;SDS011;19717;42.614;23.418;2022-09-24T00:54:24;13.98;;;8.20;;
33357;SDS011;19717;42.614;23.418;2022-09-24T00:56:58;13.80;;;7.00;;
33357;SDS011;19717;42.614;23.418;2022-09-24T00:59:24;13.00;;;7.35;;
33357;SDS011;19717;42.614;23.418;2022-09-24T01:01:52;11.73;;;6.78;;
33357;SDS011;19717;42.614;23.418;2022-09-24T01:04:21;13.80;;;7.00;;
33357;SDS011;19717;42.614;23.418;2022-09-24T01:06:49;13.27;;;7.22;;
33357;SDS011;19717;42.614;23.418;2022-09-24T01:09:15;11.18;;;6.45;;
33357;SDS011;19717;42.614;23.418;2022-09-24T01:14:12;11.60;;;7.13;;
33357;SDS011;19717;42.614;23.418;2022-09-24T01:16:45;12.43;;;8.00;;
33357;SDS011;19717;42.614;23.418;2022-09-24T01:21:43;14.85;;;7.88;;
33357;SDS011;19717;42.614;23.418;2022-09-24T01:26:59;13.98;;;7.70;;
33357;SDS011;19717;42.614;23.418;2022-09-24T01:34:31;12.70;;;7.50;;
33357;SDS011;19717;42.614;23.418;2022-09-24T01:37:02;11.85;;;6.40;;
33357;SDS011;19717;42.614;23.418;2022-09-24T01:39:28;11.85;;;6.63;;
33357;SDS011;19717;42.614;23.418;2022-09-24T01:41:56;10.05;;;7.22;;
33357;SDS011;19717;42.614;23.418;2022-09-24T01:44:25;7.75;;;5.63;;
33357;SDS011;19717;42.614;23.418;2022-09-24T01:46:51;10.02;;;6.13;;
33357;SDS011;19717;42.614;23.418;2022-09-24T01:49:18;9.82;;;6.13;;
33357;SDS011;19717;42.614;23.418;2022-09-24T01:51:45;8.30;;;5.43;;
33357;SDS011;19717;42.614;23.418;2022-09-24T01:59:51;7.72;;;4.90;;
33357;SDS011;19717;42.614;23.418;2022-09-24T02:04:55;7.63;;;5.47;;
33357;SDS011;19717;42.614;23.418;2022-09-24T02:07:29;7.78;;;5.25;;
33357;SDS011;19717;42.614;23.418;2022-09-24T02:09:57;9.20;;;5.35;;
33357;SDS011;19717;42.614;23.418;2022-09-24T02:12:41;8.68;;;6.13;;
33357;SDS011;19717;42.614;23.418;2022-09-24T02:15:10;8.82;;;5.25;;
33357;SDS011;19717;42.614;23.418;2022-09-24T02:17:37;7.70;;;5.35;;
33357;SDS011;19717;42.614;23.418;2022-09-24T02:20:07;7.03;;;5.30;;
33357;SDS011;19717;42.614;23.418;2022-09-24T02:22:35;6.57;;;5.07;;
33357;SDS011;19717;42.614;23.418;2022-09-24T02:25:05;8.25;;;5.20;;
33357;SDS011;19717;42.614;23.418;2022-09-24T02:27:33;6.40;;;4.50;;
33357;SDS011;19717;42.614;23.418;2022-09-24T02:30:00;7.90;;;5.10;;
33357;SDS011;19717;42.614;23.418;2022-09-24T02:32:30;5.90;;;4.28;;
33357;SDS011;19717;42.614;23.418;2022-09-24T02:34:57;5.75;;;4.63;;
33357;SDS011;19717;42.614;23.418;2022-09-24T02:37:27;7.00;;;4.47;;
33357;SDS011;19717;42.614;23.418;2022-09-24T02:39:56;6.60;;;4.95;;
33357;SDS011;19717;42.614;23.418;2022-09-24T02:42:22;7.35;;;5.10;;
33357;SDS011;19717;42.614;23.418;2022-09-24T02:44:48;9.35;;;5.10;;
33357;SDS011;19717;42.614;23.418;2022-09-24T02:47:15;7.68;;;5.10;;
33357;SDS011;19717;42.614;23.418;2022-09-24T02:49:41;13.10;;;6.30;;
33357;SDS011;19717;42.614;23.418;2022-09-24T02:52:07;9.40;;;6.30;;
33357;SDS011;19717;42.614;23.418;2022-09-24T02:54:35;9.73;;;6.70;;
33357;SDS011;19717;42.614;23.418;2022-09-24T02:57:05;10.63;;;7.00;;
33357;SDS011;19717;42.614;23.418;2022-09-24T02:59:31;15.45;;;8.60;;
33357;SDS011;19717;42.614;23.418;2022-09-24T03:02:00;11.70;;;7.57;;
33357;SDS011;19717;42.614;23.418;2022-09-24T03:04:26;10.85;;;7.47;;
33357;SDS011;19717;42.614;23.418;2022-09-24T03:06:54;11.80;;;8.30;;
33357;SDS011;19717;42.614;23.418;2022-09-24T03:09:23;14.35;;;9.10;;
33357;SDS011;19717;42.614;23.418;2022-09-24T03:11:49;14.23;;;8.38;;
33357;SDS011;19717;42.614;23.418;2022-09-24T03:14:16;13.82;;;8.52;;
33357;SDS011;19717;42.614;23.418;2022-09-24T03:16:42;20.80;;;10.68;;
33357;SDS011;19717;42.614;23.418;2022-09-24T03:19:14;19.08;;;11.95;;
33357;SDS011;19717;42.614;23.418;2022-09-24T03:21:43;18.83;;;11.05;;
33357;SDS011;19717;42.614;23.418;2022-09-24T03:24:09;16.00;;;10.73;;
33357;SDS011;19717;42.614;23.418;2022-09-24T03:26:38;20.23;;;11.55;;
33357;SDS011;19717;42.614;23.418;2022-09-24T03:29:07;16.05;;;10.70;;
33357;SDS011;19717;42.614;23.418;2022-09-24T03:31:34;15.63;;;8.98;;
33357;SDS011;19717;42.614;23.418;2022-09-24T03:34:00;12.65;;;7.88;;
33357;SDS011;19717;42.614;23.418;2022-09-24T03:36:26;10.52;;;7.65;;
33357;SDS011;19717;42.614;23.418;2022-09-24T03:38:56;11.85;;;7.90;;
33357;SDS011;19717;42.614;23.418;2022-09-24T03:41:22;10.73;;;7.25;;
33357;SDS011;19717;42.614;23.418;2022-09-24T03:43:49;11.90;;;7.72;;
33357;SDS011;19717;42.614;23.418;2022-09-24T03:46:15;11.95;;;7.47;;
33357;SDS011;19717;42.614;23.418;2022-09-24T03:48:42;10.55;;;7.20;;
33357;SDS011;19717;42.614;23.418;2022-09-24T03:51:13;11.27;;;7.75;;
33357;SDS011;19717;42.614;23.418;2022-09-24T03:53:39;12.40;;;8.57;;
33357;SDS011;19717;42.614;23.418;2022-09-24T03:56:06;12.38;;;7.75;;
33357;SDS011;19717;42.614;23.418;2022-09-24T03:58:33;13.38;;;8.10;;
33357;SDS011;19717;42.614;23.418;2022-09-24T04:01:02;13.93;;;8.68;;
33357;SDS011;19717;42.614;23.418;2022-09-24T04:03:29;16.48;;;8.57;;
33357;SDS011;19717;42.614;23.418;2022-09-24T04:05:55;12.60;;;8.18;;
33357;SDS011;19717;42.614;23.418;2022-09-24T04:08:21;13.27;;;8.93;;
33357;SDS011;19717;42.614;23.418;2022-09-24T04:10:50;10.93;;;8.13;;
33357;SDS011;19717;42.614;23.418;2022-09-24T04:13:17;12.10;;;8.57;;
33357;SDS011;19717;42.614;23.418;2022-09-24T04:15:43;13.85;;;8.40;;
33357;SDS011;19717;42.614;23.418;2022-09-24T04:18:09;12.10;;;8.40;;
33357;SDS011;19717;42.614;23.418;2022-09-24T04:20:35;13.15;;;8.77;;
33357;SDS011;19717;42.614;23.418;2022-09-24T04:23:02;19.52;;;8.43;;
33357;SDS011;19717;42.614;23.418;2022-09-24T04:25:29;11.32;;;7.95;;
33357;SDS011;19717;42.614;23.418;2022-09-24T04:27:56;11.23;;;7.80;;
33357;SDS011;19717;42.614;23.418;2022-09-24T04:30:23;18.92;;;9.57;;
33357;SDS011;19717;42.614;23.418;2022-09-24T04:32:50;17.52;;;9.45;;
33357;SDS011;19717;42.614;23.418;2022-09-24T04:35:20;27.30;;;12.88;;
33357;SDS011;19717;42.614;23.418;2022-09-24T04:37:46;17.92;;;9.82;;
33357;SDS011;19717;42.614;23.418;2022-09-24T04:40:12;11.38;;;7.57;;
33357;SDS011;19717;42.614;23.418;2022-09-24T04:42:40;10.35;;;7.30;;
33357;SDS011;19717;42.614;23.418;2022-09-24T04:45:06;10.70;;;7.07;;
33357;SDS011;19717;42.614;23.418;2022-09-24T04:47:34;12.65;;;8.15;;
33357;SDS011;19717;42.614;23.418;2022-09-24T04:50:00;12.00;;;6.55;;
33357;SDS011;19717;42.614;23.418;2022-09-24T04:52:27;9.05;;;6.38;;
33357;SDS011;19717;42.614;23.418;2022-09-24T04:54:55;8.93;;;6.82;;
33357;SDS011;19717;42.614;23.418;2022-09-24T04:57:24;10.10;;;6.97;;
33357;SDS011;19717;42.614;23.418;2022-09-24T04:59:50;10.07;;;6.75;;
33357;SDS011;19717;42.614;23.418;2022-09-24T05:02:17;8.98;;;6.45;;
33357;SDS011;19717;42.614;23.418;2022-09-24T05:04:43;9.68;;;6.90;;
33357;SDS011;19717;42.614;23.418;2022-09-24T05:07:09;9.20;;;6.55;;
33357;SDS011;19717;42.614;23.418;2022-09-24T05:09:35;14.50;;;7.68;;
33357;SDS011;19717;42.614;23.418;2022-09-24T05:12:02;11.65;;;7.55;;
33357;SDS011;19717;42.614;23.418;2022-09-24T05:14:28;11.35;;;7.88;;
33357;SDS011;19717;42.614;23.418;2022-09-24T05:16:55;12.32;;;7.57;;
33357;SDS011;19717;42.614;23.418;2022-09-24T05:19:21;11.02;;;7.65;;
33357;SDS011;19717;42.614;23.418;2022-09-24T05:21:47;13.38;;;7.97;;
33357;SDS011;19717;42.614;23.418;2022-09-24T05:24:14;11.90;;;7.65;;
33357;SDS011;19717;42.614;23.418;2022-09-24T05:26:40;12.77;;;8.00;;
33357;SDS011;19717;42.614;23.418;2022-09-24T05:29:24;16.02;;;9.10;;
33357;SDS011;19717;42.614;23.418;2022-09-24T05:31:51;16.45;;;10.95;;
33357;SDS011;19717;42.614;23.418;2022-09-24T05:34:17;17.90;;;11.18;;
33357;SDS011;19717;42.614;23.418;2022-09-24T05:36:43;14.75;;;9.27;;
33357;SDS011;19717;42.614;23.418;2022-09-24T05:39:09;16.42;;;9.43;;
33357;SDS011;19717;42.614;23.418;2022-09-24T05:41:36;22.45;;;11.25;;
33357;SDS011;19717;42.614;23.418;2022-09-24T05:44:02;30.00;;;12.88;;
33357;SDS011;19717;42.614;23.418;2022-09-24T05:46:28;25.33;;;12.63;;
33357;SDS011;19717;42.614;23.418;2022-09-24T05:48:54;24.15;;;13.05;;
33357;SDS011;19717;42.614;23.418;2022-09-24T05:51:21;24.15;;;12.20;;
33357;SDS011;19717;42.614;23.418;2022-09-24T05:53:47;24.40;;;10.75;;
33357;SDS011;19717;42.614;23.418;2022-09-24T05:56:14;21.30;;;10.60;;
33357;SDS011;19717;42.614;23.418;2022-09-24T05:58:40;31.17;;;10.23;;
33357;SDS011;19717;42.614;23.418;2022-09-24T06:01:06;14.68;;;9.63;;
33357;SDS011;19717;42.614;23.418;2022-09-24T06:03:33;16.15;;;9.70;;
33357;SDS011;19717;42.614;23.418;2022-09-24T06:05:59;16.02;;;10.07;;
33357;SDS011;19717;42.614;23.418;2022-09-24T06:08:30;15.10;;;9.60;;
33357;SDS011;19717;42.614;23.418;2022-09-24T06:11:03;11.63;;;8.80;;
33357;SDS011;19717;42.614;23.418;2022-09-24T06:13:33;19.13;;;9.65;;
33357;SDS011;19717;42.614;23.418;2022-09-24T06:16:03;15.70;;;9.80;;
33357;SDS011;19717;42.614;23.418;2022-09-24T06:18:33;17.33;;;9.85;;
33357;SDS011;19717;42.614;23.418;2022-09-24T06:21:02;15.63;;;10.25;;
33357;SDS011;19717;42.614;23.418;2022-09-24T06:23:30;17.30;;;9.70;;
33357;SDS011;19717;42.614;23.418;2022-09-24T06:25:57;15.25;;;9.18;;
33357;SDS011;19717;42.614;23.418;2022-09-24T06:28:23;16.05;;;9.77;;
33357;SDS011;19717;42.614;23.418;2022-09-24T06:30:49;19.92;;;8.85;;
33357;SDS011;19717;42.614;23.418;2022-09-24T06:33:15;19.90;;;10.38;;
33357;SDS011;19717;42.614;23.418;2022-09-24T06:35:42;20.10;;;10.65;;
33357;SDS011;19717;42.614;23.418;2022-09-24T06:38:12;18.10;;;10.32;;
33357;SDS011;19717;42.614;23.418;2022-09-24T06:40:39;19.33;;;10.98;;
33357;SDS011;19717;42.614;23.418;2022-09-24T06:43:05;18.58;;;11.05;;
33357;SDS011;19717;42.614;23.418;2022-09-24T06:45:32;20.90;;;12.23;;
33357;SDS011;19717;42.614;23.418;2022-09-24T06:47:59;20.90;;;12.95;;
33357;SDS011;19717;42.614;23.418;2022-09-24T06:50:26;20.15;;;12.57;;
33357;SDS011;19717;42.614;23.418;2022-09-24T06:52:52;19.67;;;11.63;;
33357;SDS011;19717;42.614;23.418;2022-09-24T06:55:18;17.95;;;10.88;;
33357;SDS011;19717;42.614;23.418;2022-09-24T06:57:44;19.73;;;10.65;;
33357;SDS011;19717;42.614;23.418;2022-09-24T07:00:11;14.30;;;9.25;;
33357;SDS011;19717;42.614;23.418;2022-09-24T07:02:38;13.95;;;8.68;;
33357;SDS011;19717;42.614;23.418;2022-09-24T07:05:05;13.52;;;8.10;;
33357;SDS011;19717;42.614;23.418;2022-09-24T07:07:31;13.50;;;8.27;;
33357;SDS011;19717;42.614;23.418;2022-09-24T07:09:58;14.98;;;8.73;;
33357;SDS011;19717;42.614;23.418;2022-09-24T07:12:31;12.23;;;8.40;;
33357;SDS011;19717;42.614;23.418;2022-09-24T07:14:57;12.43;;;8.15;;
33357;SDS011;19717;42.614;23.418;2022-09-24T07:17:27;10.98;;;7.63;;
33357;SDS011;19717;42.614;23.418;2022-09-24T07:19:54;10.25;;;7.50;;
33357;SDS011;19717;42.614;23.418;2022-09-24T07:22:20;10.32;;;6.32;;
33357;SDS011;19717;42.614;23.418;2022-09-24T07:24:50;9.48;;;6.72;;
33357;SDS011;19717;42.614;23.418;2022-09-24T07:27:20;13.27;;;8.88;;
33357;SDS011;19717;42.614;23.418;2022-09-24T07:29:49;13.70;;;7.75;;
33357;SDS011;19717;42.614;23.418;2022-09-24T07:32:15;10.27;;;7.63;;
33357;SDS011;19717;42.614;23.418;2022-09-24T07:34:42;10.63;;;7.63;;
33357;SDS011;19717;42.614;23.418;2022-09-24T07:37:10;11.73;;;7.38;;
33357;SDS011;19717;42.614;23.418;2022-09-24T07:39:37;9.98;;;6.82;;
33357;SDS011;19717;42.614;23.418;2022-09-24T07:42:03;11.40;;;6.65;;
33357;SDS011;19717;42.614;23.418;2022-09-24T07:44:30;12.68;;;6.72;;
33357;SDS011;19717;42.614;23.418;2022-09-24T07:46:56;13.40;;;7.47;;
33357;SDS011;19717;42.614;23.418;2022-09-24T07:49:22;11.82;;;7.43;;
33357;SDS011;19717;42.614;23.418;2022-09-24T07:51:48;8.35;;;6.22;;
33357;SDS011;19717;42.614;23.418;2022-09-24T07:54:14;12.27;;;5.75;;
33357;SDS011;19717;42.614;23.418;2022-09-24T07:56:41;9.25;;;6.75;;
33357;SDS011;19717;42.614;23.418;2022-09-24T07:59:07;8.82;;;5.75;;
33357;SDS011;19717;42.614;23.418;2022-09-24T08:01:35;7.13;;;5.57;;
33357;SDS011;19717;42.614;23.418;2022-09-24T08:04:01;11.05;;;6.25;;
33357;SDS011;19717;42.614;23.418;2022-09-24T08:06:28;8.05;;;5.50;;
33357;SDS011;19717;42.614;23.418;2022-09-24T08:08:57;8.80;;;5.57;;
33357;SDS011;19717;42.614;23.418;2022-09-24T08:11:23;10.63;;;6.70;;
33357;SDS011;19717;42.614;23.418;2022-09-24T08:13:49;9.98;;;6.13;;
33357;SDS011;19717;42.614;23.418;2022-09-24T08:16:16;8.57;;;5.45;;
33357;SDS011;19717;42.614;23.418;2022-09-24T08:18:43;7.80;;;5.60;;
33357;SDS011;19717;42.614;23.418;2022-09-24T08:21:09;8.13;;;5.70;;
33357;SDS011;19717;42.614;23.418;2022-09-24T08:23:38;8.43;;;5.80;;
33357;SDS011;19717;42.614;23.418;2022-09-24T08:26:04;7.97;;;5.40;;
33357;SDS011;19717;42.614;23.418;2022-09-24T08:28:31;7.60;;;5.07;;
33357;SDS011;19717;42.614;23.418;2022-09-24T08:31:00;7.25;;;5.00;;
33357;SDS011;19717;42.614;23.418;2022-09-24T08:33:27;9.23;;;5.65;;
33357;SDS011;19717;42.614;23.418;2022-09-24T08:35:53;7.40;;;5.25;;
33357;SDS011;19717;42.614;23.418;2022-09-24T08:38:20;6.65;;;5.03;;
33357;SDS011;19717;42.614;23.418;2022-09-24T08:40:55;7.32;;;4.90;;
33357;SDS011;19717;42.614;23.418;2022-09-24T08:45:52;7.25;;;4.72;;
33357;SDS011;19717;42.614;23.418;2022-09-24T08:48:38;8.75;;;5.15;;
33357;SDS011;19717;42.614;23.418;2022-09-24T08:51:06;6.80;;;4.60;;
33357;SDS011;19717;42.614;23.418;2022-09-24T08:56:24;5.15;;;4.63;;
33357;SDS011;19717;42.614;23.418;2022-09-24T09:09:24;8.10;;;4.38;;
33357;SDS011;19717;42.614;23.418;2022-09-24T09:12:03;7.18;;;4.40;;
33357;SDS011;19717;42.614;23.418;2022-09-24T09:17:11;7.20;;;4.50;;
33357;SDS011;19717;42.614;23.418;2022-09-24T09:19:42;6.60;;;4.63;;
33357;SDS011;19717;42.614;23.418;2022-09-24T09:22:12;5.80;;;4.47;;
33357;SDS011;19717;42.614;23.418;2022-09-24T09:24:46;6.13;;;4.50;;
33357;SDS011;19717;42.614;23.418;2022-09-24T09:27:13;6.63;;;4.32;;
33357;SDS011;19717;42.614;23.418;2022-09-24T09:29:40;5.55;;;4.70;;
33357;SDS011;19717;42.614;23.418;2022-09-24T09:32:09;7.40;;;4.97;;
33357;SDS011;19717;42.614;23.418;2022-09-24T09:34:45;5.40;;;4.60;;
33357;SDS011;19717;42.614;23.418;2022-09-24T09:37:17;6.38;;;4.10;;
33357;SDS011;19717;42.614;23.418;2022-09-24T09:42:32;5.43;;;4.00;;
33357;SDS011;19717;42.614;23.418;2022-09-24T09:45:21;6.03;;;3.85;;
33357;SDS011;19717;42.614;23.418;2022-09-24T09:47:52;10.20;;;4.22;;
33357;SDS011;19717;42.614;23.418;2022-09-24T09:50:25;8.35;;;4.10;;
33357;SDS011;19717;42.614;23.418;2022-09-24T09:52:55;8.05;;;4.05;;
33357;SDS011;19717;42.614;23.418;2022-09-24T09:55:22;4.88;;;3.70;;
33357;SDS011;19717;42.614;23.418;2022-09-24T09:57:49;9.27;;;3.60;;
33357;SDS011;19717;42.614;23.418;2022-09-24T10:00:25;11.63;;;3.70;;
33357;SDS011;19717;42.614;23.418;2022-09-24T10:02:52;7.43;;;3.70;;
33357;SDS011;19717;42.614;23.418;2022-09-24T10:05:19;6.80;;;3.60;;
33357;SDS011;19717;42.614;23.418;2022-09-24T10:07:46;6.32;;;3.80;;
33357;SDS011;19717;42.614;23.418;2022-09-24T10:10:17;5.22;;;2.83;;
33357;SDS011;19717;42.614;23.418;2022-09-24T10:12:43;5.85;;;2.90;;
33357;SDS011;19717;42.614;23.418;2022-09-24T10:17:39;3.47;;;3.17;;
33357;SDS011;19717;42.614;23.418;2022-09-24T10:22:44;6.25;;;2.95;;
33357;SDS011;19717;42.614;23.418;2022-09-24T10:25:18;4.97;;;3.07;;
33357;SDS011;19717;42.614;23.418;2022-09-24T10:27:45;5.30;;;3.05;;
33357;SDS011;19717;42.614;23.418;2022-09-24T10:30:17;6.38;;;3.10;;
33357;SDS011;19717;42.614;23.418;2022-09-24T10:33:00;4.22;;;3.42;;
33357;SDS011;19717;42.614;23.418;2022-09-24T10:35:31;3.97;;;2.83;;
33357;SDS011;19717;42.614;23.418;2022-09-24T10:38:02;6.00;;;2.80;;
33357;SDS011;19717;42.614;23.418;2022-09-24T10:40:30;3.50;;;2.70;;
33357;SDS011;19717;42.614;23.418;2022-09-24T10:43:00;5.45;;;3.05;;
33357;SDS011;19717;42.614;23.418;2022-09-24T10:48:26;6.72;;;3.05;;
33357;SDS011;19717;42.614;23.418;2022-09-24T10:51:05;8.50;;;3.80;;
33357;SDS011;19717;42.614;23.418;2022-09-24T10:53:45;6.75;;;3.70;;
33357;SDS011;19717;42.614;23.418;2022-09-24T10:59:05;5.95;;;3.58;;
33357;SDS011;19717;42.614;23.418;2022-09-24T11:20:02;5.57;;;3.45;;
33357;SDS011;19717;42.614;23.418;2022-09-24T11:38:20;9.27;;;3.30;;
33357;SDS011;19717;42.614;23.418;2022-09-24T11:53:39;11.15;;;3.20;;
33357;SDS011;19717;42.614;23.418;2022-09-24T11:56:09;4.15;;;2.83;;
33357;SDS011;19717;42.614;23.418;2022-09-24T12:01:11;8.02;;;2.50;;
33357;SDS011;19717;42.614;23.418;2022-09-24T12:06:18;7.10;;;2.80;;
33357;SDS011;19717;42.614;23.418;2022-09-24T12:11:28;4.28;;;2.35;;
33357;SDS011;19717;42.614;23.418;2022-09-24T12:16:28;3.22;;;2.60;;
33357;SDS011;19717;42.614;23.418;2022-09-24T12:19:02;5.38;;;2.33;;
33357;SDS011;19717;42.614;23.418;2022-09-24T12:21:33;5.63;;;2.45;;
33357;SDS011;19717;42.614;23.418;2022-09-24T12:24:04;5.03;;;2.38;;
33357;SDS011;19717;42.614;23.418;2022-09-24T12:26:33;3.35;;;2.88;;
33357;SDS011;19717;42.614;23.418;2022-09-24T12:29:15;3.15;;;2.65;;
33357;SDS011;19717;42.614;23.418;2022-09-24T12:32:10;4.05;;;2.55;;
33357;SDS011;19717;42.614;23.418;2022-09-24T12:37:23;3.58;;;2.20;;
33357;SDS011;19717;42.614;23.418;2022-09-24T12:40:13;4.50;;;2.55;;
33357;SDS011;19717;42.614;23.418;2022-09-24T12:42:44;3.08;;;2.30;;
33357;SDS011;19717;42.614;23.418;2022-09-24T12:45:13;4.55;;;2.80;;
33357;SDS011;19717;42.614;23.418;2022-09-24T12:47:56;4.20;;;2.78;;
33357;SDS011;19717;42.614;23.418;2022-09-24T12:50:30;3.42;;;2.53;;
33357;SDS011;19717;42.614;23.418;2022-09-24T12:52:57;4.00;;;2.53;;
33357;SDS011;19717;42.614;23.418;2022-09-24T12:55:24;4.38;;;2.75;;
33357;SDS011;19717;42.614;23.418;2022-09-24T12:57:57;5.95;;;2.30;;
33357;SDS011;19717;42.614;23.418;2022-09-24T13:03:03;4.15;;;2.58;;
33357;SDS011;19717;42.614;23.418;2022-09-24T13:10:37;7.10;;;2.50;;
33357;SDS011;19717;42.614;23.418;2022-09-24T13:13:14;4.43;;;2.42;;
33357;SDS011;19717;42.614;23.418;2022-09-24T13:15:46;3.47;;;2.60;;
33357;SDS011;19717;42.614;23.418;2022-09-24T13:18:22;2.63;;;2.40;;
33357;SDS011;19717;42.614;23.418;2022-09-24T13:21:00;2.60;;;2.40;;
33357;SDS011;19717;42.614;23.418;2022-09-24T13:25:55;7.85;;;2.72;;
33357;SDS011;19717;42.614;23.418;2022-09-24T13:28:25;5.00;;;2.63;;
33357;SDS011;19717;42.614;23.418;2022-09-24T13:30:57;3.00;;;2.70;;
33357;SDS011;19717;42.614;23.418;2022-09-24T13:33:28;2.65;;;2.20;;
33357;SDS011;19717;42.614;23.418;2022-09-24T13:38:50;4.32;;;2.40;;
33357;SDS011;19717;42.614;23.418;2022-09-24T13:42:19;3.17;;;2.33;;
33357;SDS011;19717;42.614;23.418;2022-09-24T13:44:18;2.83;;;2.60;;
33357;SDS011;19717;42.614;23.418;2022-09-24T13:46:45;2.92;;;2.30;;
33357;SDS011;19717;42.614;23.418;2022-09-24T13:49:15;3.92;;;2.30;;
33357;SDS011;19717;42.614;23.418;2022-09-24T13:51:43;4.70;;;2.10;;
33357;SDS011;19717;42.614;23.418;2022-09-24T13:54:13;4.40;;;2.40;;
33357;SDS011;19717;42.614;23.418;2022-09-24T13:56:43;4.78;;;2.17;;
33357;SDS011;19717;42.614;23.418;2022-09-24T13:59:19;3.33;;;2.45;;
33357;SDS011;19717;42.614;23.418;2022-09-24T14:01:45;6.68;;;2.50;;
33357;SDS011;19717;42.614;23.418;2022-09-24T14:04:16;3.63;;;2.40;;
33357;SDS011;19717;42.614;23.418;2022-09-24T14:06:53;5.85;;;2.30;;
33357;SDS011;19717;42.614;23.418;2022-09-24T14:11:59;3.10;;;2.28;;
33357;SDS011;19717;42.614;23.418;2022-09-24T14:14:27;5.65;;;2.50;;
33357;SDS011;19717;42.614;23.418;2022-09-24T14:17:04;2.83;;;2.38;;
33357;SDS011;19717;42.614;23.418;2022-09-24T14:19:30;2.88;;;2.35;;
33357;SDS011;19717;42.614;23.418;2022-09-24T14:21:58;2.78;;;2.40;;
33357;SDS011;19717;42.614;23.418;2022-09-24T14:27:02;4.18;;;2.53;;
33357;SDS011;19717;42.614;23.418;2022-09-24T14:29:41;3.15;;;2.80;;
33357;SDS011;19717;42.614;23.418;2022-09-24T14:32:22;6.93;;;2.85;;
33357;SDS011;19717;42.614;23.418;2022-09-24T14:34:50;3.17;;;2.42;;
33357;SDS011;19717;42.614;23.418;2022-09-24T14:37:18;3.35;;;2.63;;
33357;SDS011;19717;42.614;23.418;2022-09-24T14:39:46;9.75;;;5.32;;
33357;SDS011;19717;42.614;23.418;2022-09-24T14:42:17;15.40;;;4.70;;
33357;SDS011;19717;42.614;23.418;2022-09-24T14:44:45;3.70;;;2.90;;
33357;SDS011;19717;42.614;23.418;2022-09-24T14:47:33;4.20;;;2.67;;
33357;SDS011;19717;42.614;23.418;2022-09-24T14:49:58;4.90;;;2.70;;
33357;SDS011;19717;42.614;23.418;2022-09-24T14:52:34;2.90;;;2.70;;
33357;SDS011;19717;42.614;23.418;2022-09-24T14:57:34;7.47;;;2.42;;
33357;SDS011;19717;42.614;23.418;2022-09-24T15:00:00;3.45;;;2.33;;
33357;SDS011;19717;42.614;23.418;2022-09-24T15:02:32;3.33;;;2.60;;
33357;SDS011;19717;42.614;23.418;2022-09-24T15:04:59;5.18;;;2.45;;
33357;SDS011;19717;42.614;23.418;2022-09-24T15:07:27;5.63;;;2.60;;
33357;SDS011;19717;42.614;23.418;2022-09-24T15:09:57;3.30;;;2.60;;
33357;SDS011;19717;42.614;23.418;2022-09-24T15:12:25;7.50;;;2.70;;
33357;SDS011;19717;42.614;23.418;2022-09-24T15:15:06;5.05;;;2.50;;
33357;SDS011;19717;42.614;23.418;2022-09-24T15:17:41;5.65;;;2.70;;
33357;SDS011;19717;42.614;23.418;2022-09-24T15:20:08;6.32;;;2.72;;
33357;SDS011;19717;42.614;23.418;2022-09-24T15:22:35;3.08;;;2.38;;
33357;SDS011;19717;42.614;23.418;2022-09-24T15:25:01;3.15;;;2.38;;
33357;SDS011;19717;42.614;23.418;2022-09-24T15:27:31;3.05;;;2.70;;
33357;SDS011;19717;42.614;23.418;2022-09-24T15:29:59;4.80;;;2.83;;
33357;SDS011;19717;42.614;23.418;2022-09-24T15:32:26;4.63;;;2.88;;
33357;SDS011;19717;42.614;23.418;2022-09-24T15:34:53;12.18;;;5.80;;
33357;SDS011;19717;42.614;23.418;2022-09-24T15:37:21;22.77;;;12.55;;
33357;SDS011;19717;42.614;23.418;2022-09-24T15:39:47;36.20;;;19.38;;
33357;SDS011;19717;42.614;23.418;2022-09-24T15:42:17;28.52;;;14.68;;
33357;SDS011;19717;42.614;23.418;2022-09-24T15:44:43;40.20;;;18.70;;
33357;SDS011;19717;42.614;23.418;2022-09-24T15:47:10;34.03;;;18.50;;
33357;SDS011;19717;42.614;23.418;2022-09-24T15:49:39;29.90;;;15.43;;
33357;SDS011;19717;42.614;23.418;2022-09-24T15:52:06;33.75;;;16.90;;
33357;SDS011;19717;42.614;23.418;2022-09-24T15:54:33;30.13;;;15.27;;
33357;SDS011;19717;42.614;23.418;2022-09-24T15:56:59;20.80;;;12.07;;
33357;SDS011;19717;42.614;23.418;2022-09-24T15:59:28;21.73;;;9.13;;
33357;SDS011;19717;42.614;23.418;2022-09-24T16:01:58;24.75;;;9.98;;
33357;SDS011;19717;42.614;23.418;2022-09-24T16:04:28;28.05;;;10.80;;
33357;SDS011;19717;42.614;23.418;2022-09-24T16:06:54;40.10;;;11.98;;
33357;SDS011;19717;42.614;23.418;2022-09-24T16:09:20;43.42;;;9.25;;
33357;SDS011;19717;42.614;23.418;2022-09-24T16:11:46;28.40;;;6.90;;
33357;SDS011;19717;42.614;23.418;2022-09-24T16:14:12;8.88;;;5.63;;
33357;SDS011;19717;42.614;23.418;2022-09-24T16:16:38;10.68;;;5.63;;
33357;SDS011;19717;42.614;23.418;2022-09-24T16:19:04;10.25;;;6.38;;
33357;SDS011;19717;42.614;23.418;2022-09-24T16:21:33;12.10;;;4.97;;
33357;SDS011;19717;42.614;23.418;2022-09-24T16:23:59;9.77;;;4.40;;
33357;SDS011;19717;42.614;23.418;2022-09-24T16:26:25;57.30;;;22.98;;
33357;SDS011;19717;42.614;23.418;2022-09-24T16:28:51;43.03;;;25.23;;
33357;SDS011;19717;42.614;23.418;2022-09-24T16:31:18;36.60;;;20.90;;
33357;SDS011;19717;42.614;23.418;2022-09-24T16:33:44;21.73;;;12.50;;
33357;SDS011;19717;42.614;23.418;2022-09-24T16:36:10;9.48;;;6.90;;
33357;SDS011;19717;42.614;23.418;2022-09-24T16:38:36;9.25;;;4.40;;
33357;SDS011;19717;42.614;23.418;2022-09-24T16:41:03;8.10;;;4.30;;
33357;SDS011;19717;42.614;23.418;2022-09-24T16:43:30;29.83;;;11.82;;
33357;SDS011;19717;42.614;23.418;2022-09-24T16:46:03;30.65;;;12.18;;
33357;SDS011;19717;42.614;23.418;2022-09-24T16:48:30;19.15;;;6.88;;
33357;SDS011;19717;42.614;23.418;2022-09-24T16:51:03;15.52;;;5.78;;
33357;SDS011;19717;42.614;23.418;2022-09-24T16:53:29;20.52;;;7.78;;